createdAt,value
2018-04-09T00:01:37.374Z,14.40
2018-04-09T00:04:05.282Z,14.30
2018-04-09T00:06:32.785Z,14.40
2018-04-09T00:09:00.290Z,14.40
2018-04-09T00:11:27.807Z,14.40
2018-04-09T00:13:55.317Z,14.40
2018-04-09T00:16:22.833Z,14.30
2018-04-09T00:18:50.371Z,14.20
2018-04-09T00:21:18.349Z,14.20
2018-04-09T00:23:45.851Z,14.20
2018-04-09T00:26:13.845Z,14.20
2018-04-09T00:28:41.770Z,14.10
2018-04-09T00:31:09.290Z,14.20
2018-04-09T00:33:36.793Z,14.20
2018-04-09T00:36:04.909Z,14.10
2018-04-09T00:38:32.814Z,14.00
2018-04-09T00:41:00.382Z,14.10
2018-04-09T00:43:28.274Z,14.00
2018-04-09T00:45:56.195Z,13.90
2018-04-09T00:48:23.693Z,13.90
2018-04-09T00:50:51.204Z,13.90
2018-04-09T00:56:12.946Z,13.80
2018-04-09T00:58:40.456Z,13.70
2018-04-09T01:01:08.007Z,13.70
2018-04-09T01:03:35.893Z,13.60
2018-04-09T01:06:03.814Z,13.60
2018-04-09T01:08:31.327Z,13.60
2018-04-09T01:10:58.846Z,13.60
2018-04-09T01:13:26.736Z,13.50
2018-04-09T01:15:54.649Z,13.50
2018-04-09T01:18:22.138Z,13.50
2018-04-09T01:20:49.658Z,13.50
2018-04-09T01:23:17.161Z,13.50
2018-04-09T01:25:44.763Z,13.50
2018-04-09T01:28:12.771Z,13.70
2018-04-09T01:30:40.295Z,13.70
2018-04-09T01:33:07.830Z,13.70
2018-04-09T01:35:35.811Z,13.60
2018-04-09T01:38:03.300Z,13.60
2018-04-09T01:40:30.809Z,13.60
2018-04-09T01:42:58.367Z,13.50
2018-04-09T01:45:26.373Z,13.50
2018-04-09T01:47:54.256Z,13.40
2018-04-09T01:50:21.769Z,13.40
2018-04-09T01:52:49.321Z,13.30
2018-04-09T01:55:16.831Z,13.30
2018-04-09T01:57:44.394Z,13.30
2018-04-09T02:00:12.307Z,13.30
2018-04-09T02:02:39.812Z,13.40
2018-04-09T02:05:07.350Z,13.40
2018-04-09T02:07:34.871Z,13.40
2018-04-09T02:10:02.379Z,13.40
2018-04-09T02:12:29.888Z,13.40
2018-04-09T02:14:57.389Z,13.40
2018-04-09T02:17:25.296Z,13.40
2018-04-09T02:19:53.193Z,13.50
2018-04-09T02:22:20.712Z,13.50
2018-04-09T02:24:48.197Z,13.50
2018-04-09T02:27:15.730Z,13.50
2018-04-09T02:29:43.635Z,13.40
2018-04-09T02:32:11.205Z,13.40
2018-04-09T02:34:39.103Z,13.20
2018-04-09T02:37:07.081Z,13.20
2018-04-09T02:39:34.685Z,13.20
2018-04-09T02:42:02.599Z,13.10
2018-04-09T02:44:30.103Z,13.20
2018-04-09T02:46:57.627Z,13.10
2018-04-09T02:49:25.136Z,13.00
2018-04-09T02:51:52.650Z,13.00
2018-04-09T02:54:20.187Z,12.90
2018-04-09T02:56:48.183Z,12.90
2018-04-09T02:59:16.079Z,12.90
2018-04-09T03:01:43.996Z,12.90
2018-04-09T03:04:11.530Z,12.90
2018-04-09T03:06:39.043Z,12.80
2018-04-09T03:09:06.932Z,12.80
2018-04-09T03:11:34.852Z,12.80
2018-04-09T03:14:02.344Z,12.80
2018-04-09T03:16:29.859Z,12.80
2018-04-09T03:18:57.357Z,12.80
2018-04-09T03:21:24.870Z,12.80
2018-04-09T03:23:52.767Z,12.90
2018-04-09T03:26:20.256Z,12.90
2018-04-09T03:28:47.774Z,12.90
2018-04-09T03:31:15.278Z,13.00
2018-04-09T03:33:42.791Z,13.00
2018-04-09T03:36:10.285Z,12.90
2018-04-09T03:38:37.846Z,12.90
2018-04-09T03:41:05.744Z,12.80
2018-04-09T03:43:33.734Z,12.80
2018-04-09T03:46:01.621Z,12.80
2018-04-09T03:48:29.624Z,12.80
2018-04-09T03:50:57.619Z,12.80
2018-04-09T03:53:25.614Z,12.80
2018-04-09T03:55:53.505Z,12.80
2018-04-09T03:58:21.417Z,12.90
2018-04-09T04:00:48.926Z,12.90
2018-04-09T04:03:16.452Z,12.90
2018-04-09T04:05:43.946Z,12.90
2018-04-09T04:08:11.875Z,12.80
2018-04-09T04:10:39.370Z,12.90
2018-04-09T04:13:06.878Z,12.80
2018-04-09T04:15:46.274Z,12.80
2018-04-09T04:18:26.082Z,12.70
2018-04-09T04:21:05.497Z,12.70
2018-04-09T04:23:33.026Z,12.70
2018-04-09T04:26:00.575Z,12.60
2018-04-09T04:28:28.495Z,12.40
2018-04-09T04:30:56.127Z,12.40
2018-04-09T04:33:23.737Z,12.40
2018-04-09T04:35:51.628Z,12.40
2018-04-09T04:38:19.150Z,12.40
2018-04-09T04:40:46.665Z,12.30
2018-04-09T04:43:14.276Z,12.30
2018-04-09T04:45:41.789Z,12.40
2018-04-09T04:48:09.297Z,12.40
2018-04-09T04:50:36.786Z,12.40
2018-04-09T04:53:04.312Z,12.40
2018-04-09T04:55:31.819Z,12.30
2018-04-09T04:57:59.336Z,12.40
2018-04-09T05:00:26.825Z,12.40
2018-04-09T05:02:54.327Z,12.40
2018-04-09T05:05:21.841Z,12.40
2018-04-09T05:07:49.735Z,12.40
2018-04-09T05:10:17.713Z,12.40
2018-04-09T05:12:45.311Z,12.40
2018-04-09T05:15:13.266Z,12.40
2018-04-09T05:17:40.777Z,12.40
2018-04-09T05:20:08.706Z,12.50
2018-04-09T05:22:36.268Z,12.50
2018-04-09T05:25:04.295Z,12.50
2018-04-09T05:27:31.838Z,12.50
2018-04-09T05:29:59.348Z,12.50
2018-04-09T05:32:26.850Z,12.60
2018-04-09T05:34:54.369Z,12.60
2018-04-09T05:37:21.871Z,12.60
2018-04-09T05:39:49.466Z,12.70
2018-04-09T05:42:17.358Z,12.90
2018-04-09T05:44:45.276Z,13.00
2018-04-09T05:47:12.783Z,13.00
2018-04-09T05:49:40.306Z,13.00
2018-04-09T05:52:07.810Z,13.10
2018-04-09T05:54:35.372Z,13.10
2018-04-09T05:57:02.879Z,13.30
2018-04-09T05:59:30.841Z,13.40
2018-04-09T06:01:58.317Z,13.40
2018-04-09T06:04:25.825Z,13.50
2018-04-09T06:06:53.719Z,13.70
2018-04-09T06:09:21.630Z,13.70
2018-04-09T06:11:49.134Z,13.70
2018-04-09T06:14:16.654Z,13.70
2018-04-09T06:16:44.154Z,13.70
2018-04-09T06:19:12.078Z,13.80
2018-04-09T06:21:39.638Z,13.80
2018-04-09T06:24:07.734Z,14.00
2018-04-09T06:26:35.651Z,14.10
2018-04-09T06:29:03.148Z,14.10
2018-04-09T06:31:30.694Z,14.20
2018-04-09T06:33:58.595Z,14.40
2018-04-09T06:36:26.588Z,14.50
2018-04-09T06:38:54.472Z,15.30
2018-04-09T06:41:21.998Z,15.40
2018-04-09T06:43:49.510Z,15.40
2018-04-09T06:46:17.026Z,15.30
2018-04-09T06:48:44.917Z,15.00
2018-04-09T06:51:12.820Z,15.00
2018-04-09T06:53:40.709Z,15.00
2018-04-09T06:56:08.625Z,14.90
2018-04-09T06:58:36.186Z,14.90
2018-04-09T07:01:04.091Z,14.90
2018-04-09T07:03:31.986Z,14.90
2018-04-09T07:05:59.510Z,14.90
2018-04-09T07:08:27.004Z,14.80
2018-04-09T07:10:54.522Z,14.90
2018-04-09T07:13:22.412Z,14.80
2018-04-09T07:15:50.336Z,14.80
2018-04-09T07:18:17.838Z,14.80
2018-04-09T07:20:45.373Z,14.80
2018-04-09T07:23:13.270Z,14.90
2018-04-09T07:25:41.254Z,14.90
2018-04-09T07:28:09.247Z,15.00
2018-04-09T07:30:37.179Z,15.00
2018-04-09T07:33:04.673Z,15.00
2018-04-09T07:35:32.220Z,15.10
2018-04-09T07:38:00.122Z,15.00
2018-04-09T07:40:28.043Z,15.00
2018-04-09T07:42:56.229Z,15.00
2018-04-09T07:45:23.737Z,15.00
2018-04-09T07:47:51.249Z,15.00
2018-04-09T07:50:18.855Z,15.10
2018-04-09T07:52:46.381Z,15.30
2018-04-09T07:55:13.918Z,15.30
2018-04-09T07:57:41.814Z,15.60
2018-04-09T08:00:09.706Z,15.60
2018-04-09T08:02:37.629Z,15.80
2018-04-09T08:05:05.131Z,15.80
2018-04-09T08:07:32.658Z,15.70
2018-04-09T08:10:00.255Z,15.80
2018-04-09T08:12:28.182Z,16.00
2018-04-09T08:14:55.684Z,16.00
2018-04-09T08:17:23.231Z,16.10
2018-04-09T08:19:50.717Z,16.10
2018-04-09T08:22:18.235Z,16.20
2018-04-09T08:24:45.753Z,16.30
2018-04-09T08:27:13.271Z,16.40
2018-04-09T08:29:40.765Z,16.50
2018-04-09T08:32:08.311Z,16.70
2018-04-09T08:34:36.233Z,17.00
2018-04-09T08:37:03.750Z,17.00
2018-04-09T08:39:31.254Z,17.20
2018-04-09T08:41:58.761Z,17.30
2018-04-09T08:44:26.640Z,17.80
2018-04-09T08:46:54.150Z,17.80
2018-04-09T08:49:21.654Z,18.10
2018-04-09T08:51:49.172Z,18.30
2018-04-09T08:54:16.698Z,18.40
2018-04-09T08:56:44.617Z,18.60
2018-04-09T08:59:12.146Z,18.60
2018-04-09T09:01:39.683Z,18.80
2018-04-09T09:04:07.222Z,18.80
2018-04-09T09:06:35.128Z,19.00
2018-04-09T09:09:03.013Z,19.10
2018-04-09T09:11:31.005Z,19.20
2018-04-09T09:13:58.895Z,19.40
2018-04-09T09:16:26.415Z,19.40
2018-04-09T09:18:53.952Z,19.80
2018-04-09T09:21:21.465Z,20.00
2018-04-09T09:23:49.358Z,20.30
2018-04-09T09:26:17.265Z,20.50
2018-04-09T09:28:44.823Z,20.50
2018-04-09T09:31:13.525Z,20.70
2018-04-09T09:33:41.114Z,20.70
2018-04-09T09:36:09.000Z,20.60
2018-04-09T09:38:36.530Z,20.60
2018-04-09T09:41:04.024Z,20.70
2018-04-09T09:43:31.537Z,20.60
2018-04-09T09:45:59.042Z,20.60
2018-04-09T09:48:26.941Z,20.60
2018-04-09T09:50:54.829Z,20.50
2018-04-09T09:53:22.750Z,20.60
2018-04-09T09:55:50.340Z,20.50
2018-04-09T09:58:17.882Z,20.60
2018-04-09T10:00:47.367Z,20.60
2018-04-09T10:03:20.621Z,21.00
2018-04-09T10:05:48.112Z,21.30
2018-04-09T10:08:15.631Z,21.50
2018-04-09T10:10:43.195Z,21.60
2018-04-09T10:13:11.169Z,21.60
2018-04-09T10:15:38.761Z,21.60
2018-04-09T10:18:06.345Z,21.40
2018-04-09T10:20:33.844Z,21.00
2018-04-09T10:23:01.759Z,20.80
2018-04-09T10:25:29.304Z,20.80
2018-04-09T10:27:56.898Z,20.80
2018-04-09T10:30:24.902Z,20.70
2018-04-09T10:32:52.809Z,20.70
2018-04-09T10:35:20.387Z,20.70
2018-04-09T10:37:47.890Z,20.60
2018-04-09T10:40:15.446Z,20.70
2018-04-09T10:42:43.371Z,20.30
2018-04-09T10:45:10.885Z,20.30
2018-04-09T10:47:38.398Z,20.30
2018-04-09T10:50:06.281Z,20.70
2018-04-09T10:52:33.789Z,20.70
2018-04-09T10:55:01.687Z,20.90
2018-04-09T10:57:29.216Z,20.90
2018-04-09T10:59:56.719Z,20.80
2018-04-09T11:02:24.212Z,20.60
2018-04-09T11:04:51.730Z,20.60
2018-04-09T11:07:19.280Z,20.60
2018-04-09T11:09:46.800Z,20.70
2018-04-09T11:12:14.293Z,20.70
2018-04-09T11:14:41.822Z,20.90
2018-04-09T11:17:09.328Z,21.00
2018-04-09T11:19:37.316Z,21.00
2018-04-09T11:22:05.203Z,21.00
2018-04-09T11:24:32.795Z,21.00
2018-04-09T11:27:00.695Z,21.20
2018-04-09T11:29:28.600Z,21.20
2018-04-09T11:31:56.104Z,21.20
2018-04-09T11:34:23.647Z,21.20
2018-04-09T11:36:51.545Z,21.20
2018-04-09T11:39:19.060Z,21.20
2018-04-09T11:41:46.551Z,21.20
2018-04-09T11:44:14.103Z,21.30
2018-04-09T11:46:41.987Z,21.10
2018-04-09T11:49:09.882Z,21.10
2018-04-09T11:51:37.766Z,21.10
2018-04-09T11:54:05.286Z,21.10
2018-04-09T11:56:32.775Z,21.10
2018-04-09T11:59:00.293Z,21.20
2018-04-09T12:01:27.791Z,21.40
2018-04-09T12:03:55.303Z,21.40
2018-04-09T12:06:23.276Z,21.40
2018-04-09T12:08:50.823Z,21.40
2018-04-09T12:11:18.311Z,21.20
2018-04-09T12:13:45.829Z,21.20
2018-04-09T12:16:13.833Z,21.30
2018-04-09T12:18:41.806Z,21.40
2018-04-09T12:21:09.304Z,21.40
2018-04-09T12:23:36.821Z,21.50
2018-04-09T12:26:04.320Z,21.40
2018-04-09T12:28:31.807Z,21.20
2018-04-09T12:30:59.328Z,21.10
2018-04-09T12:33:31.129Z,21.20
2018-04-09T12:35:59.113Z,21.20
2018-04-09T12:38:26.624Z,21.20
2018-04-09T12:40:54.400Z,21.30
2018-04-09T12:43:22.367Z,21.30
2018-04-09T12:45:49.954Z,21.30
2018-04-09T12:48:17.462Z,21.30
2018-04-09T12:50:45.455Z,21.20
2018-04-09T12:53:13.348Z,21.20
2018-04-09T12:55:41.275Z,21.20
2018-04-09T12:58:08.798Z,21.20
2018-04-09T13:00:36.310Z,21.40
2018-04-09T13:03:04.199Z,21.40
2018-04-09T13:05:32.107Z,21.20
2018-04-09T13:07:59.599Z,21.20
2018-04-09T13:10:27.148Z,21.20
2018-04-09T13:12:54.680Z,21.20
2018-04-09T13:15:22.194Z,21.20
2018-04-09T13:17:49.697Z,21.20
2018-04-09T13:20:17.603Z,21.10
2018-04-09T13:22:45.499Z,20.90
2018-04-09T13:25:13.465Z,20.80
2018-04-09T13:27:40.950Z,20.80
2018-04-09T13:30:08.464Z,20.80
2018-04-09T13:32:35.964Z,20.80
2018-04-09T13:35:03.484Z,20.90
2018-04-09T13:37:30.995Z,20.80
2018-04-09T13:39:58.978Z,20.80
2018-04-09T13:42:26.479Z,20.80
2018-04-09T13:44:54.814Z,20.80
2018-04-09T13:47:22.306Z,20.90
2018-04-09T13:49:49.821Z,20.80
2018-04-09T13:52:17.426Z,20.70
2018-04-09T13:54:44.935Z,20.60
2018-04-09T13:57:12.422Z,20.70
2018-04-09T13:59:39.934Z,20.70
2018-04-09T14:02:07.452Z,20.70
2018-04-09T14:04:34.952Z,20.80
2018-04-09T14:07:02.951Z,20.90
2018-04-09T14:09:30.939Z,21.00
2018-04-09T14:11:58.879Z,21.00
2018-04-09T14:14:26.375Z,21.00
2018-04-09T14:16:53.913Z,21.00
2018-04-09T14:19:21.492Z,20.90
2018-04-09T14:21:49.413Z,20.90
2018-04-09T14:24:16.902Z,20.90
2018-04-09T14:26:44.424Z,20.90
2018-04-09T14:29:11.924Z,20.90
2018-04-09T14:31:39.849Z,21.00
2018-04-09T14:34:07.404Z,21.00
2018-04-09T14:36:35.406Z,20.90
2018-04-09T14:39:03.295Z,20.90
2018-04-09T14:41:31.194Z,21.00
2018-04-09T14:43:59.171Z,21.10
2018-04-09T14:46:26.688Z,21.00
2018-04-09T14:48:54.192Z,21.10
2018-04-09T14:51:21.719Z,21.20
2018-04-09T14:53:49.224Z,21.20
2018-04-09T14:56:17.143Z,21.10
2018-04-09T14:58:44.649Z,21.10
2018-04-09T15:01:12.158Z,21.10
2018-04-09T15:03:39.655Z,21.10
2018-04-09T15:06:07.639Z,21.10
2018-04-09T15:08:35.142Z,21.10
2018-04-09T15:11:03.063Z,21.20
2018-04-09T15:13:30.556Z,21.20
2018-04-09T15:15:58.071Z,21.20
2018-04-09T15:18:25.689Z,21.20
2018-04-09T15:20:53.264Z,21.20
2018-04-09T15:23:21.155Z,21.10
2018-04-09T15:25:49.067Z,21.10
2018-04-09T15:28:16.579Z,21.00
2018-04-09T15:30:44.071Z,21.00
2018-04-09T15:33:11.683Z,21.00
2018-04-09T15:35:39.275Z,21.00
2018-04-09T15:38:06.779Z,21.00
2018-04-09T15:40:34.667Z,21.10
2018-04-09T15:43:02.584Z,21.10
2018-04-09T15:45:30.078Z,21.10
2018-04-09T15:47:57.611Z,21.10
2018-04-09T15:50:25.098Z,21.10
2018-04-09T15:52:52.607Z,21.20
2018-04-09T15:55:20.103Z,21.20
2018-04-09T15:57:47.608Z,21.20
2018-04-09T16:00:15.095Z,21.30
2018-04-09T16:02:42.628Z,21.30
2018-04-09T16:05:10.607Z,21.30
2018-04-09T16:07:40.951Z,21.30
2018-04-09T16:10:08.457Z,21.30
2018-04-09T16:12:36.385Z,21.20
2018-04-09T16:15:03.914Z,21.20
2018-04-09T16:17:31.443Z,21.20
2018-04-09T16:19:58.948Z,21.20
2018-04-09T16:22:26.459Z,21.20
2018-04-09T16:24:53.951Z,21.20
2018-04-09T16:27:21.881Z,21.20
2018-04-09T16:29:49.424Z,21.20
2018-04-09T16:32:16.935Z,21.20
2018-04-09T16:34:44.836Z,21.10
2018-04-09T16:37:12.347Z,21.10
2018-04-09T16:39:39.839Z,21.00
2018-04-09T16:42:07.355Z,20.80
2018-04-09T16:44:34.861Z,20.80
2018-04-09T16:47:02.763Z,20.80
2018-04-09T16:49:30.264Z,20.80
2018-04-09T16:51:57.779Z,20.80
2018-04-09T16:54:25.325Z,20.80
2018-04-09T16:56:52.829Z,20.70
2018-04-09T16:59:20.339Z,20.60
2018-04-09T17:01:47.941Z,20.50
2018-04-09T17:04:15.858Z,20.50
2018-04-09T17:06:43.421Z,20.50
2018-04-09T17:09:11.425Z,20.60
2018-04-09T17:11:39.332Z,20.50
2018-04-09T17:14:06.849Z,20.50
2018-04-09T17:16:34.392Z,20.50
2018-04-09T17:19:02.358Z,20.50
2018-04-09T17:21:29.856Z,20.50
2018-04-09T17:23:57.839Z,20.50
2018-04-09T17:26:25.348Z,20.50
2018-04-09T17:28:52.903Z,20.40
2018-04-09T17:31:20.407Z,20.30
2018-04-09T17:33:48.353Z,20.20
2018-04-09T17:36:15.850Z,20.20
2018-04-09T17:38:43.374Z,20.10
2018-04-09T17:41:11.343Z,20.00
2018-04-09T17:43:38.940Z,20.00
2018-04-09T17:46:06.847Z,19.80
2018-04-09T17:48:34.425Z,19.90
2018-04-09T17:51:02.334Z,19.70
2018-04-09T17:53:29.896Z,19.70
2018-04-09T17:55:57.902Z,19.70
2018-04-09T17:58:25.870Z,19.70
2018-04-09T18:00:53.442Z,19.70
2018-04-09T18:03:20.955Z,19.60
2018-04-09T18:05:48.999Z,19.40
2018-04-09T18:08:16.516Z,19.40
2018-04-09T18:10:44.189Z,19.40
2018-04-09T18:13:11.787Z,19.30
2018-04-09T18:15:39.374Z,19.20
2018-04-09T18:18:07.298Z,19.10
2018-04-09T18:20:35.196Z,19.10
2018-04-09T18:23:02.692Z,19.20
2018-04-09T18:25:30.212Z,19.10
2018-04-09T18:27:57.736Z,19.00
2018-04-09T18:30:25.653Z,18.80
2018-04-09T18:32:53.148Z,18.90
2018-04-09T18:35:20.730Z,18.70
2018-04-09T18:37:48.230Z,18.60
2018-04-09T18:40:15.749Z,18.50
2018-04-09T18:42:43.253Z,18.50
2018-04-09T18:45:10.807Z,18.50
2018-04-09T18:47:38.372Z,18.50
2018-04-09T18:50:05.889Z,18.50
2018-04-09T18:52:33.771Z,18.50
2018-04-09T18:55:01.289Z,18.50
2018-04-09T18:57:28.781Z,18.40
2018-04-09T18:59:56.287Z,18.50
2018-04-09T19:02:23.785Z,18.40
2018-04-09T19:04:51.314Z,18.40
2018-04-09T19:07:19.204Z,18.40
2018-04-09T19:09:46.762Z,18.40
2018-04-09T19:12:14.246Z,18.30
2018-04-09T19:14:41.758Z,18.30
2018-04-09T19:17:09.645Z,18.30
2018-04-09T19:19:37.565Z,18.20
2018-04-09T19:22:05.072Z,18.30
2018-04-09T19:24:32.587Z,18.20
2018-04-09T19:27:00.092Z,18.20
2018-04-09T19:29:28.032Z,18.10
2018-04-09T19:31:55.556Z,18.10
2018-04-09T19:34:23.474Z,18.10
2018-04-09T19:36:56.552Z,18.10
2018-04-09T19:39:29.736Z,18.10
2018-04-09T19:41:57.296Z,18.00
2018-04-09T19:44:24.812Z,17.90
2018-04-09T19:46:52.467Z,17.90
2018-04-09T19:49:19.965Z,17.90
2018-04-09T19:51:47.579Z,18.00
2018-04-09T19:54:15.099Z,18.00
2018-04-09T19:56:43.168Z,18.00
2018-04-09T19:59:10.683Z,18.00
2018-04-09T20:01:38.974Z,17.90
2018-04-09T20:04:06.858Z,17.90
2018-04-09T20:06:34.855Z,17.80
2018-04-09T20:09:02.866Z,17.70
2018-04-09T20:11:30.770Z,17.70
2018-04-09T20:13:58.263Z,17.80
2018-04-09T20:16:25.771Z,17.70
2018-04-09T20:18:53.270Z,17.70
2018-04-09T20:21:20.775Z,17.60
2018-04-09T20:23:48.664Z,17.60
2018-04-09T20:26:16.248Z,17.60
2018-04-09T20:28:43.757Z,17.50
2018-04-09T20:31:11.264Z,17.50
2018-04-09T20:33:38.765Z,17.40
2018-04-09T20:36:06.278Z,17.40
2018-04-09T20:38:33.777Z,17.40
2018-04-09T20:41:01.691Z,17.40
2018-04-09T20:43:29.183Z,17.40
2018-04-09T20:45:56.700Z,17.40
2018-04-09T20:48:24.248Z,17.40
2018-04-09T20:50:51.755Z,17.40
2018-04-09T20:53:19.287Z,17.40
2018-04-09T20:55:47.251Z,17.30
2018-04-09T20:58:14.764Z,17.40
2018-04-09T21:00:42.743Z,17.20
2018-04-09T21:03:10.350Z,17.20
2018-04-09T21:05:38.334Z,17.10
2018-04-09T21:08:06.216Z,17.10
2018-04-09T21:10:33.740Z,17.10
2018-04-09T21:13:01.235Z,17.10
2018-04-09T21:15:28.780Z,17.00
2018-04-09T21:17:56.581Z,16.90
2018-04-09T21:20:24.476Z,16.90
2018-04-09T21:22:52.405Z,16.90
2018-04-09T21:25:19.913Z,16.90
2018-04-09T21:27:47.528Z,16.90
2018-04-09T21:30:15.045Z,16.90
2018-04-09T21:32:42.565Z,16.90
2018-04-09T21:35:10.068Z,16.90
2018-04-09T21:37:37.688Z,16.80
2018-04-09T21:40:05.190Z,16.80
2018-04-09T21:42:32.742Z,16.80
2018-04-09T21:45:00.631Z,16.80
2018-04-09T21:47:28.611Z,16.80
2018-04-09T21:49:56.102Z,16.80
2018-04-09T21:52:23.616Z,16.70
2018-04-09T21:54:51.153Z,16.70
2018-04-09T21:57:18.708Z,16.70
2018-04-09T21:59:46.203Z,16.70
2018-04-09T22:02:13.803Z,16.60
2018-04-09T22:04:41.299Z,16.50
2018-04-09T22:07:08.817Z,16.50
2018-04-09T22:09:36.358Z,16.30
2018-04-09T22:12:03.876Z,16.30
2018-04-09T22:14:31.431Z,16.30
2018-04-09T22:16:58.934Z,16.30
2018-04-09T22:19:26.827Z,16.20
2018-04-09T22:21:54.401Z,16.30
2018-04-09T22:24:22.383Z,16.10
2018-04-09T22:26:49.890Z,16.20
2018-04-09T22:29:17.486Z,16.20
2018-04-09T22:31:45.384Z,16.10
2018-04-09T22:34:12.892Z,16.10
2018-04-09T22:36:40.528Z,16.00
2018-04-09T22:39:08.431Z,15.80
2018-04-09T22:41:35.930Z,15.90
2018-04-09T22:44:03.452Z,15.80
2018-04-09T22:46:30.955Z,15.80
2018-04-09T22:48:58.543Z,15.80
2018-04-09T22:51:26.431Z,15.80
2018-04-09T22:53:53.957Z,15.80
2018-04-09T22:56:21.508Z,15.80
2018-04-09T22:58:49.491Z,15.80
2018-04-09T23:01:17.096Z,15.90
2018-04-09T23:03:45.075Z,15.70
2018-04-09T23:06:12.571Z,15.80
2018-04-09T23:08:40.478Z,15.70
2018-04-09T23:11:08.047Z,15.70
2018-04-09T23:13:35.976Z,15.60
2018-04-09T23:16:03.529Z,15.60
2018-04-09T23:18:31.511Z,15.40
2018-04-09T23:20:59.003Z,15.50
2018-04-09T23:23:26.918Z,15.30
2018-04-09T23:25:54.441Z,15.30
2018-04-09T23:28:21.959Z,15.20
2018-04-09T23:30:49.846Z,15.00
2018-04-09T23:33:17.376Z,15.10
2018-04-09T23:35:44.875Z,14.90
2018-04-09T23:38:12.387Z,14.70
2018-04-09T23:40:39.901Z,14.50
2018-04-09T23:43:07.811Z,14.40
2018-04-09T23:45:35.302Z,14.40
2018-04-09T23:48:02.832Z,14.30
2018-04-09T23:50:30.340Z,14.40
2018-04-09T23:52:58.260Z,14.20
2018-04-09T23:55:25.768Z,14.20
2018-04-09T23:57:53.293Z,14.20
